Time;durP1;ratioP1;P1;durP2;ratioP2;P2;SDS_P1;SDS_P2;PMS_P1;PMS_P2;Temp;Humidity;BMP_temperature;BMP_pressure;BME280_temperature;BME280_humidity;BME280_pressure;Samples;Min_cycle;Max_cycle;Signal;HPM_P1;HPM_P2
2022/04/06 00:01:49;;;;;;;7.85;6.00;;;;;;;10.20;100.00;95716.53;5067031;28;20071;-53
2022/04/06 00:04:18;;;;;;;7.78;6.38;;;;;;;10.31;100.00;95717.25;5066133;28;20059;-59
2022/04/06 00:06:46;;;;;;;6.90;5.60;;;;;;;10.25;100.00;95709.94;5066442;28;20071;-51
2022/04/06 00:09:20;;;;;;;8.57;6.15;;;;;;;10.34;100.00;95707.22;5065949;28;20084;-55
2022/04/06 00:11:48;;;;;;;7.18;5.60;;;;;;;10.30;100.00;95702.44;5066964;28;20092;-57
2022/04/06 00:14:17;;;;;;;7.35;6.00;;;;;;;10.20;100.00;95707.81;5066703;28;20479;-54
2022/04/06 00:16:46;;;;;;;8.90;6.07;;;;;;;10.10;100.00;95709.75;5065662;28;20076;-57
2022/04/06 00:19:14;;;;;;;7.85;5.95;;;;;;;10.11;100.00;95709.56;5065884;28;20056;-60
2022/04/06 00:21:42;;;;;;;7.63;6.22;;;;;;;10.27;100.00;95708.84;5062898;28;20533;-55
2022/04/06 00:24:12;;;;;;;7.65;6.05;;;;;;;10.25;100.00;95709.94;5066856;28;20079;-50
2022/04/06 00:26:41;;;;;;;9.52;5.90;;;;;;;10.04;100.00;95703.31;5067516;28;20322;-54
2022/04/06 00:29:09;;;;;;;9.20;5.97;;;;;;;10.23;100.00;95703.03;5066872;28;20072;-56
2022/04/06 00:31:38;;;;;;;7.07;5.72;;;;;;;10.28;100.00;95704.38;5066349;28;21774;-53
2022/04/06 00:34:06;;;;;;;7.53;5.78;;;;;;;10.16;100.00;95706.47;5068267;28;20565;-53
2022/04/06 00:36:34;;;;;;;7.18;6.00;;;;;;;10.07;100.00;95699.53;5065641;28;20099;-54
2022/04/06 00:39:06;;;;;;;7.82;5.82;;;;;;;10.25;100.00;95707.31;5068215;28;20076;-54
2022/04/06 00:41:35;;;;;;;8.45;5.88;;;;;;;10.35;100.00;95703.56;5045509;28;20515;-56
2022/04/06 00:44:13;;;;;;;5.97;4.85;;;;;;;10.14;100.00;95709.25;5059508;28;20071;-55
2022/04/06 00:46:42;;;;;;;6.45;5.40;;;;;;;10.32;100.00;95703.06;5073018;28;20063;-52
2022/04/06 00:49:13;;;;;;;6.20;5.18;;;;;;;10.18;100.00;95710.59;5065681;28;20067;-55
2022/04/06 00:51:43;;;;;;;6.00;5.40;;;;;;;10.15;100.00;95702.19;5065934;28;20072;-56
2022/04/06 00:54:12;;;;;;;6.25;5.32;;;;;;;10.27;100.00;95703.56;5065665;28;20079;-54
2022/04/06 00:56:42;;;;;;;6.15;5.47;;;;;;;10.31;100.00;95704.88;5068674;28;20088;-58
2022/04/06 00:59:12;;;;;;;9.18;5.10;;;;;;;10.30;100.00;95708.53;5066107;28;20375;-49
2022/04/06 01:01:40;;;;;;;6.82;5.35;;;;;;;10.16;100.00;95691.50;5066337;28;20287;-53
2022/04/06 01:04:08;;;;;;;6.18;5.28;;;;;;;10.45;100.00;95706.88;5068410;28;20068;-53
2022/04/06 01:06:37;;;;;;;6.63;4.93;;;;;;;10.37;100.00;95700.78;5068002;28;20056;-54
2022/04/06 01:09:05;;;;;;;5.68;4.80;;;;;;;10.13;100.00;95698.91;5068350;28;20099;-56
2022/04/06 01:11:34;;;;;;;6.15;5.30;;;;;;;10.21;100.00;95697.09;5067771;28;20653;-56
2022/04/06 01:14:03;;;;;;;6.32;5.03;;;;;;;10.14;100.00;95704.00;5067210;28;20075;-55
2022/04/06 01:16:32;;;;;;;6.00;4.72;;;;;;;10.23;100.00;95692.50;5067303;28;20063;-53
2022/04/06 01:19:01;;;;;;;6.60;5.23;;;;;;;10.27;100.00;95687.75;5066616;28;20132;-53
2022/04/06 01:21:29;;;;;;;6.65;5.53;;;;;;;10.14;100.00;95682.91;5065081;28;20037;-55
2022/04/06 01:23:59;;;;;;;7.20;5.95;;;;;;;10.31;100.00;95683.81;5065485;28;20458;-53
2022/04/06 01:26:27;;;;;;;7.65;5.57;;;;;;;10.17;100.00;95674.69;5064625;28;20063;-55
2022/04/06 01:28:55;;;;;;;6.00;5.10;;;;;;;10.19;100.00;95679.81;5065798;28;20064;-53
2022/04/06 01:31:24;;;;;;;7.60;5.25;;;;;;;10.25;100.00;95676.50;5067705;28;20079;-57
2022/04/06 01:33:52;;;;;;;6.22;5.55;;;;;;;10.16;100.00;95675.69;5065570;28;20060;-55
2022/04/06 01:36:20;;;;;;;7.53;5.47;;;;;;;10.34;100.00;95674.75;5066788;28;20412;-54
2022/04/06 01:38:48;;;;;;;7.30;5.70;;;;;;;10.27;100.00;95674.59;5068127;28;20094;-52
2022/04/06 01:41:18;;;;;;;7.35;5.70;;;;;;;10.28;100.00;95672.78;5066418;28;20557;-55
2022/04/06 01:43:46;;;;;;;9.15;5.68;;;;;;;10.15;100.00;95675.84;5069319;28;20552;-51
2022/04/06 01:46:14;;;;;;;6.32;5.72;;;;;;;10.36;100.00;95675.44;5066682;28;20071;-55
2022/04/06 01:54:10;;;;;;;7.07;5.82;;;;;;;10.28;100.00;95675.41;5062828;28;20075;-54
2022/04/06 01:56:40;;;;;;;6.95;5.53;;;;;;;10.12;100.00;95668.28;5067312;28;20513;-54
2022/04/06 01:59:08;;;;;;;7.07;5.68;;;;;;;10.00;100.00;95673.00;5066704;28;20090;-57
2022/04/06 02:01:37;;;;;;;7.20;5.40;;;;;;;10.33;100.00;95666.03;5065131;28;20083;-55
2022/04/06 02:04:13;;;;;;;8.80;5.88;;;;;;;10.18;100.00;95670.25;5068268;28;20061;-55
2022/04/06 02:06:42;;;;;;;8.10;5.28;;;;;;;10.15;100.00;95668.78;5061039;28;20079;-57
2022/04/06 02:09:27;;;;;;;6.72;5.88;;;;;;;10.33;100.00;95662.59;5063380;28;20075;-58
2022/04/06 02:11:57;;;;;;;10.25;6.07;;;;;;;10.19;100.00;95662.19;5067210;28;20087;-58
2022/04/06 02:14:25;;;;;;;7.25;5.88;;;;;;;10.18;100.00;95657.88;5065215;28;20061;-54
2022/04/06 02:16:54;;;;;;;7.25;5.65;;;;;;;10.20;100.00;95655.94;5064876;28;20041;-55
2022/04/06 02:19:22;;;;;;;9.93;6.22;;;;;;;10.19;100.00;95650.84;5064982;28;20060;-52
2022/04/06 02:21:50;;;;;;;7.50;6.13;;;;;;;10.09;100.00;95653.59;5064389;28;20075;-57
2022/04/06 02:24:19;;;;;;;7.43;6.18;;;;;;;10.13;100.00;95659.38;5064661;28;20080;-52
2022/04/06 02:26:47;;;;;;;8.02;6.50;;;;;;;10.05;100.00;95659.34;5066686;28;20080;-56
2022/04/06 02:29:17;;;;;;;8.02;5.97;;;;;;;9.89;100.00;95644.34;5065677;28;20451;-52
2022/04/06 02:31:45;;;;;;;8.57;6.10;;;;;;;10.00;100.00;95641.41;5062491;28;20087;-56
2022/04/06 02:34:32;;;;;;;7.50;6.05;;;;;;;10.05;100.00;95641.75;5062540;28;20146;-57
2022/04/06 02:37:00;;;;;;;7.80;6.05;;;;;;;9.90;100.00;95641.53;5064580;28;20064;-56
2022/04/06 02:39:28;;;;;;;7.95;6.40;;;;;;;9.93;100.00;95646.47;5064127;28;20071;-57
2022/04/06 02:41:56;;;;;;;7.22;6.35;;;;;;;9.97;100.00;95637.25;5066509;28;20111;-52
2022/04/06 02:44:26;;;;;;;7.25;6.25;;;;;;;9.89;100.00;95634.63;5064533;28;20075;-57
2022/04/06 02:46:54;;;;;;;7.88;6.28;;;;;;;10.11;100.00;95638.44;5064470;28;20545;-54
2022/04/06 02:49:22;;;;;;;8.57;6.30;;;;;;;10.23;100.00;95637.16;5066142;28;20131;-53
2022/04/06 02:51:51;;;;;;;8.77;6.30;;;;;;;10.07;100.00;95645.03;5066014;28;20041;-53
2022/04/06 02:54:19;;;;;;;7.85;6.30;;;;;;;10.10;100.00;95647.34;5067273;28;20087;-52
2022/04/06 02:56:48;;;;;;;7.13;6.13;;;;;;;10.10;100.00;95642.06;5070278;28;20084;-59
2022/04/06 02:59:16;;;;;;;8.05;6.35;;;;;;;10.14;100.00;95638.13;5068642;28;20061;-58
2022/04/06 03:01:46;;;;;;;8.25;6.20;;;;;;;9.92;100.00;95631.69;5073132;28;20451;-53
2022/04/06 03:04:14;;;;;;;6.13;5.33;;;;;;;10.09;100.00;95632.53;5069597;28;20072;-53
2022/04/06 03:06:43;;;;;;;7.95;6.07;;;;;;;9.95;100.00;95628.72;5070043;28;20455;-56
2022/04/06 03:09:11;;;;;;;8.13;6.55;;;;;;;10.06;100.00;95630.22;5065716;28;20076;-54
2022/04/06 03:11:39;;;;;;;7.78;6.50;;;;;;;9.98;100.00;95631.03;5067502;28;20080;-56
2022/04/06 03:14:08;;;;;;;10.75;6.60;;;;;;;9.81;100.00;95618.81;5065098;28;20485;-61
2022/04/06 03:16:36;;;;;;;8.07;6.15;;;;;;;10.03;100.00;95617.38;5068092;28;20077;-59
2022/04/06 03:19:06;;;;;;;7.13;6.13;;;;;;;9.87;100.00;95612.88;5069565;28;20083;-61
2022/04/06 03:21:34;;;;;;;10.88;6.93;;;;;;;9.90;100.00;95609.09;5066494;28;20079;-58
2022/04/06 03:24:02;;;;;;;10.85;7.50;;;;;;;9.90;100.00;95612.56;5066157;28;20091;-52
2022/04/06 03:26:31;;;;;;;7.35;6.32;;;;;;;9.81;100.00;95599.56;5069536;28;21754;-53
2022/04/06 03:28:59;;;;;;;10.27;6.90;;;;;;;9.87;100.00;95604.97;5072527;28;20112;-55
2022/04/06 03:31:27;;;;;;;7.55;6.78;;;;;;;9.98;100.00;95599.44;5068723;28;21693;-55
2022/04/06 03:33:55;;;;;;;8.70;7.20;;;;;;;10.01;100.00;95603.53;5069123;28;20072;-56
2022/04/06 03:36:25;;;;;;;9.95;7.13;;;;;;;9.87;100.00;95602.34;5070308;28;20736;-57
2022/04/06 03:38:53;;;;;;;8.10;6.93;;;;;;;9.55;100.00;95602.28;5069830;28;20088;-52
2022/04/06 03:41:21;;;;;;;8.02;6.72;;;;;;;9.72;100.00;95602.16;5067102;28;20600;-56
2022/04/06 03:43:50;;;;;;;8.70;6.80;;;;;;;9.71;100.00;95602.34;5068390;28;20072;-54
2022/04/06 03:46:18;;;;;;;10.25;7.55;;;;;;;9.69;100.00;95593.75;5068248;28;20072;-55
2022/04/06 03:48:46;;;;;;;10.10;6.95;;;;;;;9.86;100.00;95600.72;5069313;28;20068;-57
2022/04/06 03:51:15;;;;;;;8.30;6.72;;;;;;;9.84;100.00;95597.44;5068710;28;20075;-56
2022/04/06 03:53:44;;;;;;;10.20;7.45;;;;;;;10.05;100.00;95594.34;5073536;28;20083;-48
2022/04/06 03:56:12;;;;;;;9.35;7.45;;;;;;;9.81;100.00;95592.50;5062323;28;20589;-54
2022/04/06 03:58:41;;;;;;;9.05;7.18;;;;;;;9.98;100.00;95593.34;5071380;28;20075;-54
2022/04/06 04:01:09;;;;;;;9.70;7.68;;;;;;;10.08;100.00;95593.16;5067046;28;20549;-56
2022/04/06 04:03:38;;;;;;;11.80;7.88;;;;;;;10.12;100.00;95587.44;5065459;28;20072;-56
2022/04/06 04:06:06;;;;;;;12.23;7.72;;;;;;;9.93;100.00;95587.72;5065706;28;20095;-50
2022/04/06 04:08:34;;;;;;;11.95;8.02;;;;;;;9.96;100.00;95592.66;5066415;28;20553;-57
2022/04/06 04:11:04;;;;;;;12.00;7.50;;;;;;;10.16;100.00;95593.19;5069794;28;20072;-55
2022/04/06 04:13:32;;;;;;;9.23;7.47;;;;;;;10.02;100.00;95583.31;5062329;28;20064;-55
2022/04/06 04:16:01;;;;;;;10.05;7.55;;;;;;;9.92;100.00;95589.53;5071056;28;20056;-55
2022/04/06 04:18:29;;;;;;;9.32;7.80;;;;;;;10.02;100.00;95589.41;5065849;28;20072;-55
2022/04/06 04:23:40;;;;;;;11.70;7.97;;;;;;;10.06;100.00;95587.25;5068051;28;20422;-55
2022/04/06 04:26:10;;;;;;;10.27;8.50;;;;;;;9.96;100.00;95596.13;5074766;28;20072;-59
2022/04/06 04:28:41;;;;;;;11.93;8.40;;;;;;;10.09;100.00;95589.56;5067678;28;20131;-55
2022/04/06 04:31:09;;;;;;;12.07;8.13;;;;;;;9.95;100.00;95583.13;5069860;28;20079;-55
2022/04/06 04:33:37;;;;;;;13.30;8.45;;;;;;;10.00;100.00;95588.72;5064014;28;20481;-56
2022/04/06 04:36:06;;;;;;;10.80;8.38;;;;;;;10.09;100.00;95586.94;5061693;28;20450;-53
2022/04/06 04:38:36;;;;;;;10.40;8.23;;;;;;;10.06;100.00;95577.53;5065379;28;20084;-54
2022/04/06 04:41:06;;;;;;;11.93;8.50;;;;;;;10.14;100.00;95589.88;5064983;28;20067;-55
2022/04/06 04:43:36;;;;;;;10.02;7.90;;;;;;;9.80;100.00;95590.00;5065617;28;20075;-54
2022/04/06 04:46:05;;;;;;;14.48;8.25;;;;;;;10.17;100.00;95592.19;5068536;28;20061;-53
2022/04/06 04:48:33;;;;;;;9.75;7.90;;;;;;;10.07;100.00;95587.09;5063139;28;20063;-55
2022/04/06 04:51:02;;;;;;;11.55;7.72;;;;;;;10.06;100.00;95590.72;5064384;28;20083;-59
2022/04/06 04:53:30;;;;;;;12.52;8.45;;;;;;;10.08;100.00;95590.53;5041347;28;20102;-53
2022/04/06 04:55:58;;;;;;;11.10;7.80;;;;;;;10.09;100.00;95589.56;5063987;28;20082;-54
2022/04/06 04:58:27;;;;;;;10.43;7.63;;;;;;;10.05;100.00;95594.34;5066215;28;20068;-53
2022/04/06 05:00:56;;;;;;;12.00;8.55;;;;;;;10.30;100.00;95592.56;5065364;28;20156;-55
2022/04/06 05:03:25;;;;;;;9.85;7.97;;;;;;;10.13;100.00;95586.44;5064912;28;20408;-56
2022/04/06 05:05:56;;;;;;;10.63;8.15;;;;;;;10.35;100.00;95594.72;5060582;28;20106;-47
2022/04/06 05:08:26;;;;;;;10.18;8.32;;;;;;;10.22;100.00;95592.56;5054137;28;20079;-56
2022/04/06 05:10:54;;;;;;;11.68;8.52;;;;;;;10.27;100.00;95595.53;5049116;28;20120;-56
2022/04/06 05:13:22;;;;;;;10.95;8.38;;;;;;;10.21;100.00;95590.88;5058056;28;20075;-57
2022/04/06 05:15:51;;;;;;;10.85;7.97;;;;;;;10.17;100.00;95600.09;5069066;28;20064;-56
2022/04/06 05:18:21;;;;;;;11.50;8.30;;;;;;;10.25;100.00;95592.19;5067280;28;20087;-56
2022/04/06 05:20:49;;;;;;;9.77;7.57;;;;;;;10.31;100.00;95593.41;5069089;28;20116;-56
2022/04/06 05:23:18;;;;;;;10.10;8.27;;;;;;;10.31;100.00;95591.56;5051913;28;20071;-56
2022/04/06 05:25:46;;;;;;;12.32;8.38;;;;;;;10.21;100.00;95589.06;5049288;28;20083;-59
2022/04/06 05:28:15;;;;;;;12.00;7.95;;;;;;;10.50;100.00;95595.72;5049098;28;20071;-57
2022/04/06 05:30:43;;;;;;;12.85;7.93;;;;;;;10.49;100.00;95587.94;5048604;28;20060;-56
2022/04/06 05:33:12;;;;;;;10.38;8.20;;;;;;;10.35;100.00;95594.72;5051249;28;20091;-58
2022/04/06 05:35:41;;;;;;;10.48;7.60;;;;;;;10.66;100.00;95587.78;5065968;28;20562;-54
2022/04/06 05:38:10;;;;;;;15.15;8.52;;;;;;;10.66;100.00;95593.03;5038612;28;20077;-55
2022/04/06 05:40:38;;;;;;;9.88;7.55;;;;;;;10.73;100.00;95590.56;5041217;28;20075;-54
2022/04/06 05:43:07;;;;;;;10.27;7.38;;;;;;;10.86;100.00;95590.88;5048722;28;20537;-58
2022/04/06 05:45:36;;;;;;;10.13;7.80;;;;;;;10.88;100.00;95590.72;5048530;28;20063;-58
2022/04/06 05:48:06;;;;;;;10.35;7.57;;;;;;;11.02;100.00;95597.13;5049301;28;20577;-55
2022/04/06 05:50:34;;;;;;;9.32;7.32;;;;;;;10.97;100.00;95591.53;5054507;28;20468;-55
2022/04/06 05:53:04;;;;;;;10.45;7.38;;;;;;;10.84;100.00;95597.31;5067834;28;20531;-55
2022/04/06 05:55:32;;;;;;;9.43;7.22;;;;;;;11.08;100.00;95586.72;5068226;28;20064;-54
2022/04/06 05:58:01;;;;;;;11.20;7.53;;;;;;;11.21;100.00;95588.00;5068026;28;20387;-54
2022/04/06 06:00:29;;;;;;;12.10;6.97;;;;;;;11.32;100.00;95585.81;5068129;28;20068;-56
2022/04/06 06:02:57;;;;;;;10.15;7.57;;;;;;;11.19;100.00;95587.34;5068727;28;20076;-56
2022/04/06 06:05:25;;;;;;;12.32;7.93;;;;;;;11.34;100.00;95588.28;5060089;28;20094;-55
2022/04/06 06:07:53;;;;;;;16.55;7.72;;;;;;;11.30;100.00;95585.16;5045317;28;20073;-56
2022/04/06 06:10:23;;;;;;;17.48;8.23;;;;;;;11.50;100.00;95585.59;5068029;28;20075;-52
2022/04/06 06:12:51;;;;;;;12.70;7.55;;;;;;;11.81;100.00;95576.84;5054253;28;20076;-57
2022/04/06 06:15:20;;;;;;;11.85;7.85;;;;;;;11.83;100.00;95575.66;5047148;28;20081;-59
2022/04/06 06:17:48;;;;;;;13.35;7.30;;;;;;;11.84;100.00;95576.53;5044198;28;20088;-55
2022/04/06 06:20:16;;;;;;;8.13;6.88;;;;;;;11.86;100.00;95577.16;5046174;28;20079;-56
2022/04/06 06:22:45;;;;;;;8.73;6.85;;;;;;;11.98;100.00;95581.06;5048334;28;20048;-54
2022/04/06 06:25:13;;;;;;;9.88;6.97;;;;;;;11.78;100.00;95578.00;5048366;28;20085;-51
2022/04/06 06:27:44;;;;;;;8.45;6.85;;;;;;;11.83;100.00;95580.94;5048285;28;20072;-56
2022/04/06 06:30:18;;;;;;;10.32;6.60;;;;;;;12.08;100.00;95576.38;5055163;28;20087;-54
2022/04/06 06:32:46;;;;;;;9.15;6.93;;;;;;;11.84;100.00;95579.19;5072272;28;20083;-53
2022/04/06 06:35:14;;;;;;;9.35;6.95;;;;;;;11.91;100.00;95577.47;5071602;28;20568;-55
2022/04/06 06:37:47;;;;;;;9.90;6.60;;;;;;;12.17;100.00;95568.38;5048941;28;21507;-57
2022/04/06 06:40:15;;;;;;;9.63;6.40;;;;;;;11.99;100.00;95581.88;5041732;28;20546;-58
2022/04/06 06:42:45;;;;;;;9.30;6.47;;;;;;;12.14;100.00;95577.47;5052281;28;20530;-53
2022/04/06 06:45:13;;;;;;;8.43;5.75;;;;;;;12.11;100.00;95583.13;5052353;28;20048;-58
2022/04/06 06:47:42;;;;;;;11.35;6.55;;;;;;;12.19;100.00;95584.91;5052524;28;20522;-55
2022/04/06 06:50:12;;;;;;;7.72;6.38;;;;;;;12.33;100.00;95584.13;5063459;28;20131;-58
2022/04/06 06:52:40;;;;;;;8.35;6.65;;;;;;;12.38;100.00;95583.59;5074113;28;20060;-55
2022/04/06 06:55:15;;;;;;;9.15;6.13;;;;;;;11.98;100.00;95578.44;5071689;28;20063;-53
2022/04/06 06:57:45;;;;;;;8.00;5.57;;;;;;;12.03;100.00;95578.72;5071559;28;20414;-53
2022/04/06 07:00:14;;;;;;;8.07;6.70;;;;;;;12.33;100.00;95571.72;5071083;28;20087;-55
2022/04/06 07:02:43;;;;;;;7.45;5.63;;;;;;;12.40;100.00;95579.78;5071917;28;20080;-59
2022/04/06 07:05:12;;;;;;;7.93;6.18;;;;;;;12.23;100.00;95576.44;5071262;28;20549;-59
2022/04/06 07:07:51;;;;;;;8.18;6.00;;;;;;;12.48;100.00;95571.78;5055227;28;20040;-58
2022/04/06 07:10:19;;;;;;;7.35;5.60;;;;;;;12.13;100.00;95580.31;5051498;28;20095;-59
2022/04/06 07:12:49;;;;;;;7.15;5.65;;;;;;;12.13;100.00;95575.84;5053119;28;20545;-57
2022/04/06 07:15:18;;;;;;;8.35;5.53;;;;;;;12.40;100.00;95569.19;5071485;28;20080;-56
2022/04/06 07:17:50;;;;;;;7.25;6.15;;;;;;;12.21;100.00;95577.59;5064571;28;20080;-54
2022/04/06 07:20:19;;;;;;;7.25;5.70;;;;;;;11.89;100.00;95566.25;5051442;28;20072;-59
2022/04/06 07:22:47;;;;;;;8.07;5.57;;;;;;;11.77;100.00;95570.28;5051508;28;20041;-57
2022/04/06 07:25:16;;;;;;;8.55;5.82;;;;;;;12.04;100.00;95566.31;5051564;28;20069;-59
2022/04/06 07:27:44;;;;;;;8.55;6.45;;;;;;;12.32;100.00;95567.44;5066006;28;20075;-59
2022/04/06 07:30:14;;;;;;;7.88;6.22;;;;;;;11.88;100.00;95570.72;5083613;28;20536;-60
2022/04/06 07:32:43;;;;;;;8.18;5.97;;;;;;;11.73;100.00;95567.13;5092387;28;20517;-59
2022/04/06 07:35:11;;;;;;;6.80;5.88;;;;;;;12.17;100.00;95563.09;5069747;28;20569;-56
2022/04/06 07:37:41;;;;;;;7.05;5.45;;;;;;;11.85;100.00;95559.69;5051151;28;20529;-58
2022/04/06 07:40:10;;;;;;;6.80;5.85;;;;;;;12.20;100.00;95560.09;5039378;28;20078;-60
2022/04/06 07:42:39;;;;;;;7.50;5.47;;;;;;;12.08;100.00;95560.53;5050745;28;20064;-58
2022/04/06 07:45:09;;;;;;;7.25;6.05;;;;;;;12.72;100.00;95557.50;5055871;28;20080;-52
2022/04/06 07:47:39;;;;;;;6.90;5.75;;;;;;;12.61;100.00;95552.66;5071311;28;20076;-54
2022/04/06 07:50:08;;;;;;;8.15;5.85;;;;;;;12.79;100.00;95554.97;5051797;28;20078;-56
2022/04/06 07:52:37;;;;;;;11.45;5.90;;;;;;;13.34;100.00;95548.44;5050365;28;20067;-54
2022/04/06 07:55:07;;;;;;;8.40;6.32;;;;;;;13.42;100.00;95552.81;5050901;28;20068;-57
2022/04/06 07:57:36;;;;;;;6.40;5.57;;;;;;;13.62;100.00;95559.16;5068748;28;20036;-58
2022/04/06 08:00:06;;;;;;;6.53;5.68;;;;;;;13.45;100.00;95553.25;5068058;28;20502;-60
2022/04/06 08:02:35;;;;;;;7.00;5.40;;;;;;;13.75;100.00;95546.06;5070174;28;21935;-55
2022/04/06 08:05:05;;;;;;;6.70;5.22;;;;;;;13.39;100.00;95545.25;5069675;28;20454;-59
2022/04/06 08:07:39;;;;;;;8.45;5.32;;;;;;;13.51;100.00;95549.88;5051554;28;20463;-59
2022/04/06 08:10:09;;;;;;;6.07;5.20;;;;;;;13.92;100.00;95543.22;5039092;28;20053;-57
2022/04/06 08:12:37;;;;;;;5.90;5.30;;;;;;;13.74;100.00;95544.44;5050604;28;20064;-59
2022/04/06 08:15:07;;;;;;;4.47;3.83;;;;;;;13.68;100.00;95542.53;5051018;28;20502;-52
2022/04/06 08:17:36;;;;;;;5.53;4.32;;;;;;;13.89;100.00;95552.34;5049906;28;20571;-60
2022/04/06 08:20:09;;;;;;;5.63;4.55;;;;;;;14.47;100.00;95545.16;5050135;28;20068;-56
2022/04/06 08:22:37;;;;;;;5.32;4.40;;;;;;;14.76;100.00;95537.25;5053142;28;20072;-57
2022/04/06 08:25:06;;;;;;;4.68;4.15;;;;;;;14.38;100.00;95542.81;5070429;28;20071;-52
2022/04/06 08:27:54;;;;;;;7.68;4.70;;;;;;;15.04;100.00;95540.72;5050057;28;20061;-57
2022/04/06 08:30:23;;;;;;;5.70;4.72;;;;;;;14.27;100.00;95544.16;5068251;28;20529;-55
2022/04/06 08:32:58;;;;;;;5.47;4.57;;;;;;;14.34;100.00;95542.38;5070868;28;20060;-51
2022/04/06 08:35:28;;;;;;;6.93;4.80;;;;;;;14.58;100.00;95540.38;5067389;28;20072;-57
2022/04/06 08:37:56;;;;;;;5.05;4.45;;;;;;;14.35;100.00;95544.06;5050010;28;20075;-58
2022/04/06 08:40:24;;;;;;;4.82;4.15;;;;;;;14.61;100.00;95542.66;5042233;28;20061;-58
2022/04/06 08:42:53;;;;;;;5.68;5.07;;;;;;;15.05;100.00;95533.56;5066932;28;20068;-57
2022/04/06 08:45:21;;;;;;;5.20;4.70;;;;;;;15.03;100.00;95531.09;5085897;28;20066;-53
2022/04/06 08:47:51;;;;;;;4.70;4.13;;;;;;;15.01;100.00;95534.97;5090636;28;20084;-57
2022/04/06 08:50:20;;;;;;;6.07;4.70;;;;;;;14.56;100.00;95529.97;5072365;28;20067;-60
2022/04/06 08:52:49;;;;;;;6.00;4.07;;;;;;;14.48;100.00;95527.41;5069309;28;20072;-60
2022/04/06 08:55:28;;;;;;;5.95;4.80;;;;;;;15.20;100.00;95523.63;5069994;28;20092;-59
2022/04/06 08:57:57;;;;;;;5.30;4.63;;;;;;;14.92;100.00;95513.88;5069717;28;20040;-59
2022/04/06 09:00:26;;;;;;;4.78;4.13;;;;;;;14.62;100.00;95517.75;5068823;28;20080;-58
2022/04/06 09:02:54;;;;;;;4.55;4.00;;;;;;;14.83;100.00;95515.06;5070318;28;20084;-58
2022/04/06 09:05:25;;;;;;;4.60;3.92;;;;;;;14.72;100.00;95513.75;5068837;28;20064;-58
2022/04/06 09:07:55;;;;;;;5.15;4.55;;;;;;;14.95;100.00;95510.03;5063557;28;20073;-61
2022/04/06 09:10:35;;;;;;;4.60;4.18;;;;;;;14.69;100.00;95505.34;5069051;28;20072;-59
2022/04/06 09:13:11;;;;;;;4.50;4.10;;;;;;;15.02;100.00;95499.44;5069601;28;20091;-58
2022/04/06 09:15:41;;;;;;;5.38;4.05;;;;;;;15.05;100.00;95502.53;5069007;28;20064;-56
2022/04/06 09:18:09;;;;;;;4.73;4.07;;;;;;;15.22;100.00;95502.22;5068816;28;20107;-58
2022/04/06 09:20:38;;;;;;;9.07;5.13;;;;;;;15.56;100.00;95502.16;5069056;28;20497;-56
2022/04/06 09:23:08;;;;;;;4.80;3.88;;;;;;;15.15;100.00;95496.88;5068886;28;20074;-60
2022/04/06 09:25:38;;;;;;;4.78;4.15;;;;;;;15.67;100.00;95492.81;5065416;28;20072;-60
2022/04/06 09:28:08;;;;;;;5.35;4.32;;;;;;;15.71;100.00;95490.56;5068808;28;20475;-57
2022/04/06 09:30:39;;;;;;;6.50;3.83;;;;;;;15.44;100.00;95479.81;5051097;28;20060;-60
2022/04/06 09:33:13;;;;;;;4.18;3.78;;;;;;;15.46;100.00;95483.09;5050704;28;20195;-58
2022/04/06 09:35:41;;;;;;;5.20;4.15;;;;;;;15.87;100.00;95476.91;5069254;28;20072;-60
2022/04/06 09:38:12;;;;;;;4.40;4.00;;;;;;;15.88;100.00;95473.22;5068347;28;20075;-60
2022/04/06 09:40:41;;;;;;;4.65;3.97;;;;;;;16.13;100.00;95476.13;5071287;28;20059;-56
2022/04/06 09:43:20;;;;;;;8.05;4.00;;;;;;;16.01;100.00;95472.44;5088732;28;20068;-55
2022/04/06 09:48:52;;;;;;;5.45;3.92;;;;;;;15.54;100.00;95477.59;5068579;28;20067;-57
2022/04/06 09:51:21;;;;;;;4.70;3.92;;;;;;;15.41;100.00;95472.22;5068616;28;20493;-59
2022/04/06 09:53:52;;;;;;;4.85;3.97;;;;;;;15.88;100.00;95459.94;5069269;28;20084;-55
2022/04/06 09:56:21;;;;;;;4.47;4.07;;;;;;;15.66;100.00;95465.41;5068788;28;20071;-59
2022/04/06 09:58:50;;;;;;;6.50;4.30;;;;;;;15.38;100.00;95467.31;5068371;28;20059;-55
2022/04/06 10:01:19;;;;;;;6.32;4.03;;;;;;;15.48;100.00;95451.81;5067977;28;20114;-61
2022/04/06 10:03:50;;;;;;;5.10;4.60;;;;;;;15.61;100.00;95454.53;5067407;28;20540;-58
2022/04/06 10:06:19;;;;;;;6.13;4.38;;;;;;;16.11;100.00;95443.59;5068457;28;20079;-59
2022/04/06 10:08:48;;;;;;;4.25;3.78;;;;;;;15.92;100.00;95442.56;5064472;28;20049;-53
2022/04/06 10:11:18;;;;;;;4.63;4.05;;;;;;;16.20;100.00;95442.34;5048330;28;20088;-58
2022/04/06 10:13:47;;;;;;;5.03;4.35;;;;;;;16.42;100.00;95435.00;5048319;28;20079;-58
2022/04/06 10:16:24;;;;;;;4.75;3.75;;;;;;;16.38;100.00;95425.81;5060928;28;20080;-60
2022/04/06 10:18:54;;;;;;;4.93;4.40;;;;;;;16.45;100.00;95429.28;5074172;28;20075;-59
2022/04/06 10:21:27;;;;;;;4.80;4.30;;;;;;;16.72;100.00;95419.38;5067817;28;20909;-56
2022/04/06 10:24:07;;;;;;;5.15;4.22;;;;;;;16.69;100.00;95422.47;5068107;28;20076;-59
2022/04/06 10:26:45;;;;;;;4.35;3.63;;;;;;;16.44;100.00;95409.00;5048016;28;21513;-58
2022/04/06 10:29:13;;;;;;;5.10;4.07;;;;;;;16.82;100.00;95414.47;5048204;28;20075;-59
2022/04/06 10:31:42;;;;;;;4.88;3.97;;;;;;;16.51;100.00;95408.97;5048237;28;20072;-56
2022/04/06 10:34:22;;;;;;;5.97;4.35;;;;;;;16.95;100.00;95400.31;5056724;28;20068;-53
2022/04/06 10:37:10;;;;;;;7.15;4.70;;;;;;;16.47;100.00;95402.44;5063968;28;20068;-60
2022/04/06 10:40:00;;;;;;;5.35;4.22;;;;;;;16.78;100.00;95391.94;5067312;28;20067;-59
2022/04/06 10:42:34;;;;;;;;;;;;;;;17.76;100.00;95382.91;5068303;28;20087;-60
2022/04/06 10:45:05;;;;;;;5.10;4.30;;;;;;;17.13;100.00;95385.47;5068303;28;19966;-54
2022/04/06 10:47:33;;;;;;;4.88;4.38;;;;;;;16.96;100.00;95382.47;5067559;28;20443;-61
2022/04/06 10:50:23;;;;;;;5.97;4.40;;;;;;;16.89;100.00;95379.84;5067479;28;20577;-57
2022/04/06 10:53:29;;;;;;;4.65;4.07;;;;;;;16.45;100.00;95372.53;5063414;28;20078;-60
2022/04/06 10:55:59;;;;;;;7.78;4.30;;;;;;;16.48;100.00;95380.13;5067592;28;20475;-60
2022/04/06 10:58:29;;;;;;;5.90;4.75;;;;;;;16.80;100.00;95360.63;5067784;28;20534;-58
2022/04/06 11:01:17;;;;;;;5.72;4.60;;;;;;;17.12;100.00;95358.03;5067508;28;20061;-56
2022/04/06 11:03:56;;;;;;;6.05;4.43;;;;;;;17.18;100.00;95367.84;5067486;28;20071;-60
2022/04/06 11:06:56;;;;;;;4.72;4.28;;;;;;;16.77;100.00;95353.06;5067375;28;20091;-60
2022/04/06 11:12:14;;;;;;;5.78;5.00;;;;;;;17.26;100.00;95346.25;5068822;28;20630;-58
2022/04/06 11:14:45;;;;;;;5.20;4.70;;;;;;;17.61;100.00;95343.19;5067870;28;20091;-57
2022/04/06 11:17:37;;;;;;;4.40;3.95;;;;;;;17.95;100.00;95341.94;5070434;28;20099;-57
2022/04/06 11:20:08;;;;;;;4.93;3.92;;;;;;;17.68;100.00;95329.81;5071022;28;20112;-60
2022/04/06 11:22:39;;;;;;;4.90;4.20;;;;;;;18.06;100.00;95336.91;5070753;28;20064;-58
2022/04/06 11:25:08;;;;;;;;;;;;;;;17.74;100.00;95332.41;5071392;28;20056;-61
2022/04/06 11:27:37;;;;;;;4.45;3.85;;;;;;;18.38;100.00;95321.63;5071224;28;19948;-59
2022/04/06 11:30:09;;;;;;;4.20;3.80;;;;;;;18.09;100.00;95329.28;5071174;28;20084;-59
2022/04/06 11:32:38;;;;;;;4.30;3.90;;;;;;;18.43;100.00;95311.91;5051227;28;20067;-60
2022/04/06 11:35:08;;;;;;;5.63;4.75;;;;;;;18.33;100.00;95319.63;5066659;28;20052;-60
2022/04/06 11:37:41;;;;;;;4.87;4.23;;;;;;;17.86;100.00;95313.06;5070806;28;20075;-60
2022/04/06 11:40:11;;;;;;;5.80;4.57;;;;;;;17.30;100.00;95314.69;5070500;28;20474;-61
2022/04/06 11:42:39;;;;;;;5.43;4.82;;;;;;;17.30;100.00;95306.69;5071271;28;20083;-58
2022/04/06 11:45:10;;;;;;;5.55;4.97;;;;;;;17.38;100.00;95301.13;5070999;28;20103;-56
2022/04/06 11:47:39;;;;;;;5.43;4.65;;;;;;;18.11;100.00;95297.88;5071544;28;20095;-57
2022/04/06 11:50:11;;;;;;;5.35;4.78;;;;;;;17.84;100.00;95285.81;5070182;28;20110;-55
2022/04/06 11:52:42;;;;;;;5.38;4.80;;;;;;;17.84;100.00;95294.63;5070465;28;20075;-57